sensor_id;sensor_type;location;lat;lon;timestamp;temperature;humidity
28763;DHT22;15918;51.270;6.522;2023-04-24T00:00:20;15.90;61.40
28763;DHT22;15918;51.270;6.522;2023-04-24T00:02:46;15.80;61.30
28763;DHT22;15918;51.270;6.522;2023-04-24T00:05:13;15.90;62.20
28763;DHT22;15918;51.270;6.522;2023-04-24T00:07:43;15.80;61.30
28763;DHT22;15918;51.270;6.522;2023-04-24T00:10:10;15.80;61.40
28763;DHT22;15918;51.270;6.522;2023-04-24T00:12:36;15.80;61.40
28763;DHT22;15918;51.270;6.522;2023-04-24T00:15:02;15.80;61.40
28763;DHT22;15918;51.270;6.522;2023-04-24T00:17:27;15.80;61.60
28763;DHT22;15918;51.270;6.522;2023-04-24T00:19:53;15.90;61.50
28763;DHT22;15918;51.270;6.522;2023-04-24T00:22:24;15.90;61.40
28763;DHT22;15918;51.270;6.522;2023-04-24T00:24:50;15.70;61.20
28763;DHT22;15918;51.270;6.522;2023-04-24T00:27:16;15.70;61.00
28763;DHT22;15918;51.270;6.522;2023-04-24T00:29:41;15.80;61.60
28763;DHT22;15918;51.270;6.522;2023-04-24T00:32:07;15.70;60.50
28763;DHT22;15918;51.270;6.522;2023-04-24T00:34:33;15.70;60.40
28763;DHT22;15918;51.270;6.522;2023-04-24T00:36:58;15.70;60.40
28763;DHT22;15918;51.270;6.522;2023-04-24T00:39:24;15.70;60.20
28763;DHT22;15918;51.270;6.522;2023-04-24T00:41:50;15.70;60.00
28763;DHT22;15918;51.270;6.522;2023-04-24T00:44:16;15.60;60.00
28763;DHT22;15918;51.270;6.522;2023-04-24T00:46:42;15.60;59.90
28763;DHT22;15918;51.270;6.522;2023-04-24T00:49:08;15.60;59.90
28763;DHT22;15918;51.270;6.522;2023-04-24T00:51:33;15.60;59.90
28763;DHT22;15918;51.270;6.522;2023-04-24T00:54:00;15.60;59.80
28763;DHT22;15918;51.270;6.522;2023-04-24T00:56:26;15.50;59.90
28763;DHT22;15918;51.270;6.522;2023-04-24T00:58:52;15.50;59.80
28763;DHT22;15918;51.270;6.522;2023-04-24T01:01:21;15.50;59.70
28763;DHT22;15918;51.270;6.522;2023-04-24T01:03:49;15.50;59.60
28763;DHT22;15918;51.270;6.522;2023-04-24T01:06:16;15.40;59.60
28763;DHT22;15918;51.270;6.522;2023-04-24T01:08:42;15.40;59.60
28763;DHT22;15918;51.270;6.522;2023-04-24T01:11:07;15.40;59.70
28763;DHT22;15918;51.270;6.522;2023-04-24T01:13:33;15.40;59.70
28763;DHT22;15918;51.270;6.522;2023-04-24T01:15:59;15.30;59.60
28763;DHT22;15918;51.270;6.522;2023-04-24T01:18:26;15.30;59.70
28763;DHT22;15918;51.270;6.522;2023-04-24T01:20:54;15.40;59.80
28763;DHT22;15918;51.270;6.522;2023-04-24T01:23:22;15.30;59.80
28763;DHT22;15918;51.270;6.522;2023-04-24T01:25:48;15.30;59.90
28763;DHT22;15918;51.270;6.522;2023-04-24T01:28:15;15.30;59.90
28763;DHT22;15918;51.270;6.522;2023-04-24T01:30:41;15.30;60.00
28763;DHT22;15918;51.270;6.522;2023-04-24T01:33:07;15.30;60.00
28763;DHT22;15918;51.270;6.522;2023-04-24T01:35:33;15.30;60.00
28763;DHT22;15918;51.270;6.522;2023-04-24T01:37:59;15.30;60.70
28763;DHT22;15918;51.270;6.522;2023-04-24T01:40:25;15.30;59.90
28763;DHT22;15918;51.270;6.522;2023-04-24T01:42:51;15.30;59.90
28763;DHT22;15918;51.270;6.522;2023-04-24T01:45:16;15.20;59.90
28763;DHT22;15918;51.270;6.522;2023-04-24T01:47:42;15.20;59.80
28763;DHT22;15918;51.270;6.522;2023-04-24T01:50:09;15.20;59.90
28763;DHT22;15918;51.270;6.522;2023-04-24T01:52:34;15.20;59.90
28763;DHT22;15918;51.270;6.522;2023-04-24T01:55:01;15.20;59.90
28763;DHT22;15918;51.270;6.522;2023-04-24T01:57:28;15.20;59.90
28763;DHT22;15918;51.270;6.522;2023-04-24T01:59:55;15.20;60.00
28763;DHT22;15918;51.270;6.522;2023-04-24T02:02:21;15.10;59.90
28763;DHT22;15918;51.270;6.522;2023-04-24T02:04:49;15.20;60.00
28763;DHT22;15918;51.270;6.522;2023-04-24T02:07:15;15.10;60.00
28763;DHT22;15918;51.270;6.522;2023-04-24T02:09:40;15.10;60.00
28763;DHT22;15918;51.270;6.522;2023-04-24T02:12:06;15.10;60.10
28763;DHT22;15918;51.270;6.522;2023-04-24T02:14:32;15.10;60.10
28763;DHT22;15918;51.270;6.522;2023-04-24T02:16:57;15.10;60.10
28763;DHT22;15918;51.270;6.522;2023-04-24T02:19:23;15.10;60.10
28763;DHT22;15918;51.270;6.522;2023-04-24T02:21:48;15.10;60.20
28763;DHT22;15918;51.270;6.522;2023-04-24T02:24:14;15.10;60.20
28763;DHT22;15918;51.270;6.522;2023-04-24T02:26:41;15.10;60.20
28763;DHT22;15918;51.270;6.522;2023-04-24T02:29:07;15.10;60.30
28763;DHT22;15918;51.270;6.522;2023-04-24T02:31:32;15.10;60.30
28763;DHT22;15918;51.270;6.522;2023-04-24T02:33:58;15.10;60.20
28763;DHT22;15918;51.270;6.522;2023-04-24T02:36:23;15.20;60.30
28763;DHT22;15918;51.270;6.522;2023-04-24T02:38:49;15.10;60.30
28763;DHT22;15918;51.270;6.522;2023-04-24T02:41:14;15.00;60.20
28763;DHT22;15918;51.270;6.522;2023-04-24T02:43:40;15.10;60.30
28763;DHT22;15918;51.270;6.522;2023-04-24T02:46:06;15.00;60.30
28763;DHT22;15918;51.270;6.522;2023-04-24T02:48:31;15.00;60.30
28763;DHT22;15918;51.270;6.522;2023-04-24T02:50:57;15.10;60.40
28763;DHT22;15918;51.270;6.522;2023-04-24T02:53:23;15.10;60.40
28763;DHT22;15918;51.270;6.522;2023-04-24T02:55:48;15.00;60.40
28763;DHT22;15918;51.270;6.522;2023-04-24T02:58:14;15.10;60.50
28763;DHT22;15918;51.270;6.522;2023-04-24T03:00:40;15.00;60.40
28763;DHT22;15918;51.270;6.522;2023-04-24T03:03:05;14.90;60.30
28763;DHT22;15918;51.270;6.522;2023-04-24T03:05:32;15.00;60.40
28763;DHT22;15918;51.270;6.522;2023-04-24T03:07:57;15.10;60.50
28763;DHT22;15918;51.270;6.522;2023-04-24T03:10:23;14.90;60.40
28763;DHT22;15918;51.270;6.522;2023-04-24T03:12:49;14.90;60.40
28763;DHT22;15918;51.270;6.522;2023-04-24T03:15:15;14.90;60.50
28763;DHT22;15918;51.270;6.522;2023-04-24T03:17:40;14.90;60.60
28763;DHT22;15918;51.270;6.522;2023-04-24T03:20:08;14.90;60.60
28763;DHT22;15918;51.270;6.522;2023-04-24T03:22:34;14.90;60.70
28763;DHT22;15918;51.270;6.522;2023-04-24T03:25:00;14.90;60.70
28763;DHT22;15918;51.270;6.522;2023-04-24T03:27:26;14.90;60.70
28763;DHT22;15918;51.270;6.522;2023-04-24T03:29:52;14.90;60.70
28763;DHT22;15918;51.270;6.522;2023-04-24T03:32:21;14.90;60.70
28763;DHT22;15918;51.270;6.522;2023-04-24T03:34:48;14.90;60.70
28763;DHT22;15918;51.270;6.522;2023-04-24T03:37:13;14.90;60.70
28763;DHT22;15918;51.270;6.522;2023-04-24T03:39:39;14.90;60.70
28763;DHT22;15918;51.270;6.522;2023-04-24T03:42:05;15.00;60.80
28763;DHT22;15918;51.270;6.522;2023-04-24T03:44:30;14.90;60.70
28763;DHT22;15918;51.270;6.522;2023-04-24T03:46:57;14.90;60.80
28763;DHT22;15918;51.270;6.522;2023-04-24T03:49:23;14.90;60.80
28763;DHT22;15918;51.270;6.522;2023-04-24T03:51:49;14.90;60.80
28763;DHT22;15918;51.270;6.522;2023-04-24T03:54:14;14.90;60.80
28763;DHT22;15918;51.270;6.522;2023-04-24T03:56:40;14.90;60.80
28763;DHT22;15918;51.270;6.522;2023-04-24T03:59:05;14.80;60.70
28763;DHT22;15918;51.270;6.522;2023-04-24T04:01:31;14.80;60.70
28763;DHT22;15918;51.270;6.522;2023-04-24T04:03:57;14.80;60.80
28763;DHT22;15918;51.270;6.522;2023-04-24T04:06:22;14.80;60.70
28763;DHT22;15918;51.270;6.522;2023-04-24T04:08:48;14.80;60.70
28763;DHT22;15918;51.270;6.522;2023-04-24T04:11:13;14.80;61.40
28763;DHT22;15918;51.270;6.522;2023-04-24T04:13:39;14.80;60.70
28763;DHT22;15918;51.270;6.522;2023-04-24T04:16:05;14.80;60.70
28763;DHT22;15918;51.270;6.522;2023-04-24T04:18:30;14.80;60.70
28763;DHT22;15918;51.270;6.522;2023-04-24T04:20:56;14.80;60.70
28763;DHT22;15918;51.270;6.522;2023-04-24T04:23:22;14.80;60.60
28763;DHT22;15918;51.270;6.522;2023-04-24T04:25:48;14.80;60.70
28763;DHT22;15918;51.270;6.522;2023-04-24T04:28:15;14.80;60.70
28763;DHT22;15918;51.270;6.522;2023-04-24T04:30:41;14.80;60.60
28763;DHT22;15918;51.270;6.522;2023-04-24T04:33:06;14.70;60.50
28763;DHT22;15918;51.270;6.522;2023-04-24T04:35:33;14.80;60.50
28763;DHT22;15918;51.270;6.522;2023-04-24T04:37:59;14.80;60.40
28763;DHT22;15918;51.270;6.522;2023-04-24T04:40:26;14.80;60.30
28763;DHT22;15918;51.270;6.522;2023-04-24T04:42:53;14.70;60.30
28763;DHT22;15918;51.270;6.522;2023-04-24T04:45:19;14.70;60.30
28763;DHT22;15918;51.270;6.522;2023-04-24T04:47:46;14.70;60.30
28763;DHT22;15918;51.270;6.522;2023-04-24T04:50:11;14.70;60.50
28763;DHT22;15918;51.270;6.522;2023-04-24T04:52:37;14.70;60.70
28763;DHT22;15918;51.270;6.522;2023-04-24T04:55:03;14.70;60.90
28763;DHT22;15918;51.270;6.522;2023-04-24T04:57:28;14.70;61.10
28763;DHT22;15918;51.270;6.522;2023-04-24T04:59:55;14.60;61.10
28763;DHT22;15918;51.270;6.522;2023-04-24T05:02:21;14.60;61.30
28763;DHT22;15918;51.270;6.522;2023-04-24T05:04:46;14.70;62.40
28763;DHT22;15918;51.270;6.522;2023-04-24T05:07:12;14.70;61.80
28763;DHT22;15918;51.270;6.522;2023-04-24T05:09:37;14.60;61.90
28763;DHT22;15918;51.270;6.522;2023-04-24T05:12:03;14.70;62.00
28763;DHT22;15918;51.270;6.522;2023-04-24T05:14:29;14.60;61.90
28763;DHT22;15918;51.270;6.522;2023-04-24T05:16:54;14.60;62.00
28763;DHT22;15918;51.270;6.522;2023-04-24T05:19:20;14.60;62.00
28763;DHT22;15918;51.270;6.522;2023-04-24T05:21:46;14.60;62.10
28763;DHT22;15918;51.270;6.522;2023-04-24T05:24:11;14.60;62.20
28763;DHT22;15918;51.270;6.522;2023-04-24T05:26:37;14.60;62.30
28763;DHT22;15918;51.270;6.522;2023-04-24T05:29:03;14.60;62.30
28763;DHT22;15918;51.270;6.522;2023-04-24T05:31:29;14.50;62.40
28763;DHT22;15918;51.270;6.522;2023-04-24T05:33:55;14.60;62.50
28763;DHT22;15918;51.270;6.522;2023-04-24T05:36:20;14.60;62.60
28763;DHT22;15918;51.270;6.522;2023-04-24T05:38:46;14.50;62.50
28763;DHT22;15918;51.270;6.522;2023-04-24T05:41:11;14.50;62.50
28763;DHT22;15918;51.270;6.522;2023-04-24T05:43:37;14.50;62.60
28763;DHT22;15918;51.270;6.522;2023-04-24T05:46:03;14.50;62.60
28763;DHT22;15918;51.270;6.522;2023-04-24T05:48:28;14.50;62.70
28763;DHT22;15918;51.270;6.522;2023-04-24T05:50:54;14.50;62.80
28763;DHT22;15918;51.270;6.522;2023-04-24T05:53:19;14.50;62.90
28763;DHT22;15918;51.270;6.522;2023-04-24T05:55:45;14.50;63.00
28763;DHT22;15918;51.270;6.522;2023-04-24T05:58:12;14.40;63.00
28763;DHT22;15918;51.270;6.522;2023-04-24T06:00:37;14.40;63.00
28763;DHT22;15918;51.270;6.522;2023-04-24T06:03:05;14.40;63.10
28763;DHT22;15918;51.270;6.522;2023-04-24T06:05:30;14.50;63.30
28763;DHT22;15918;51.270;6.522;2023-04-24T06:07:56;14.50;63.40
28763;DHT22;15918;51.270;6.522;2023-04-24T06:10:22;14.40;63.40
28763;DHT22;15918;51.270;6.522;2023-04-24T06:12:47;14.40;63.50
28763;DHT22;15918;51.270;6.522;2023-04-24T06:15:13;14.40;63.60
28763;DHT22;15918;51.270;6.522;2023-04-24T06:17:38;14.40;63.70
28763;DHT22;15918;51.270;6.522;2023-04-24T06:20:05;14.40;63.80
28763;DHT22;15918;51.270;6.522;2023-04-24T06:22:32;14.40;63.90
28763;DHT22;15918;51.270;6.522;2023-04-24T06:24:57;14.40;64.00
28763;DHT22;15918;51.270;6.522;2023-04-24T06:27:23;14.40;64.00
28763;DHT22;15918;51.270;6.522;2023-04-24T06:29:48;14.40;64.90
28763;DHT22;15918;51.270;6.522;2023-04-24T06:32:21;14.40;64.20
28763;DHT22;15918;51.270;6.522;2023-04-24T06:34:47;14.40;64.30
28763;DHT22;15918;51.270;6.522;2023-04-24T06:37:13;14.30;64.30
28763;DHT22;15918;51.270;6.522;2023-04-24T06:39:39;14.30;64.40
28763;DHT22;15918;51.270;6.522;2023-04-24T06:42:05;14.30;64.50
28763;DHT22;15918;51.270;6.522;2023-04-24T06:44:30;14.30;64.60
28763;DHT22;15918;51.270;6.522;2023-04-24T06:46:56;14.30;64.80
28763;DHT22;15918;51.270;6.522;2023-04-24T06:49:21;14.30;64.80
28763;DHT22;15918;51.270;6.522;2023-04-24T06:51:47;14.30;64.80
28763;DHT22;15918;51.270;6.522;2023-04-24T06:54:13;14.30;64.90
28763;DHT22;15918;51.270;6.522;2023-04-24T06:56:38;14.30;65.00
28763;DHT22;15918;51.270;6.522;2023-04-24T06:59:04;14.30;65.00
28763;DHT22;15918;51.270;6.522;2023-04-24T07:01:30;14.20;65.00
28763;DHT22;15918;51.270;6.522;2023-04-24T07:03:55;14.20;64.90
28763;DHT22;15918;51.270;6.522;2023-04-24T07:06:21;14.20;65.00
28763;DHT22;15918;51.270;6.522;2023-04-24T07:08:48;14.10;64.90
28763;DHT22;15918;51.270;6.522;2023-04-24T07:11:13;14.10;65.00
28763;DHT22;15918;51.270;6.522;2023-04-24T07:13:39;14.10;64.90
28763;DHT22;15918;51.270;6.522;2023-04-24T07:16:07;14.10;64.80
28763;DHT22;15918;51.270;6.522;2023-04-24T07:18:34;14.10;65.60
28763;DHT22;15918;51.270;6.522;2023-04-24T07:21:01;14.10;64.80
28763;DHT22;15918;51.270;6.522;2023-04-24T07:23:27;14.10;64.70
28763;DHT22;15918;51.270;6.522;2023-04-24T07:25:52;14.10;64.70
28763;DHT22;15918;51.270;6.522;2023-04-24T07:28:18;14.10;64.60
28763;DHT22;15918;51.270;6.522;2023-04-24T07:30:44;14.00;64.40
28763;DHT22;15918;51.270;6.522;2023-04-24T07:33:10;14.00;64.40
28763;DHT22;15918;51.270;6.522;2023-04-24T07:35:38;14.00;64.40
28763;DHT22;15918;51.270;6.522;2023-04-24T07:38:04;14.00;64.40
28763;DHT22;15918;51.270;6.522;2023-04-24T07:40:30;14.00;64.40
28763;DHT22;15918;51.270;6.522;2023-04-24T07:42:55;13.90;64.30
28763;DHT22;15918;51.270;6.522;2023-04-24T07:45:21;13.90;64.40
28763;DHT22;15918;51.270;6.522;2023-04-24T07:47:48;13.90;64.50
28763;DHT22;15918;51.270;6.522;2023-04-24T07:50:13;13.90;64.60
28763;DHT22;15918;51.270;6.522;2023-04-24T07:52:39;13.90;64.70
28763;DHT22;15918;51.270;6.522;2023-04-24T07:55:05;13.90;64.90
28763;DHT22;15918;51.270;6.522;2023-04-24T07:57:31;13.90;65.10
28763;DHT22;15918;51.270;6.522;2023-04-24T07:59:56;13.90;65.30
28763;DHT22;15918;51.270;6.522;2023-04-24T08:02:22;13.90;65.50
28763;DHT22;15918;51.270;6.522;2023-04-24T08:04:52;13.90;65.70
28763;DHT22;15918;51.270;6.522;2023-04-24T08:07:19;13.90;65.80
28763;DHT22;15918;51.270;6.522;2023-04-24T08:09:45;13.80;65.80
28763;DHT22;15918;51.270;6.522;2023-04-24T08:12:10;13.90;66.00
28763;DHT22;15918;51.270;6.522;2023-04-24T08:14:36;13.90;66.10
28763;DHT22;15918;51.270;6.522;2023-04-24T08:17:02;13.80;66.20
28763;DHT22;15918;51.270;6.522;2023-04-24T08:19:28;13.90;66.40
28763;DHT22;15918;51.270;6.522;2023-04-24T08:21:54;13.90;66.60
28763;DHT22;15918;51.270;6.522;2023-04-24T08:24:19;13.90;66.70
28763;DHT22;15918;51.270;6.522;2023-04-24T08:26:45;13.80;66.80
28763;DHT22;15918;51.270;6.522;2023-04-24T08:29:11;13.90;66.90
28763;DHT22;15918;51.270;6.522;2023-04-24T08:31:37;13.90;66.90
28763;DHT22;15918;51.270;6.522;2023-04-24T08:34:02;13.90;66.80
28763;DHT22;15918;51.270;6.522;2023-04-24T08:36:28;13.90;66.90
28763;DHT22;15918;51.270;6.522;2023-04-24T08:38:53;13.90;66.90
28763;DHT22;15918;51.270;6.522;2023-04-24T08:41:19;13.90;67.00
28763;DHT22;15918;51.270;6.522;2023-04-24T08:43:48;13.90;67.00
28763;DHT22;15918;51.270;6.522;2023-04-24T08:46:15;13.90;67.40
28763;DHT22;15918;51.270;6.522;2023-04-24T08:48:42;13.80;66.70
28763;DHT22;15918;51.270;6.522;2023-04-24T08:51:08;13.80;66.70
28763;DHT22;15918;51.270;6.522;2023-04-24T08:53:35;13.60;66.80
28763;DHT22;15918;51.270;6.522;2023-04-24T08:56:02;13.50;67.00
28763;DHT22;15918;51.270;6.522;2023-04-24T08:58:28;13.50;67.30
28763;DHT22;15918;51.270;6.522;2023-04-24T09:00:55;13.40;67.50
28763;DHT22;15918;51.270;6.522;2023-04-24T09:03:21;13.30;67.80
28763;DHT22;15918;51.270;6.522;2023-04-24T09:05:47;13.20;68.10
28763;DHT22;15918;51.270;6.522;2023-04-24T09:08:16;13.20;68.50
28763;DHT22;15918;51.270;6.522;2023-04-24T09:10:43;13.20;68.90
28763;DHT22;15918;51.270;6.522;2023-04-24T09:13:09;13.10;69.20
28763;DHT22;15918;51.270;6.522;2023-04-24T09:15:36;13.10;69.30
28763;DHT22;15918;51.270;6.522;2023-04-24T09:18:02;13.00;69.20
28763;DHT22;15918;51.270;6.522;2023-04-24T09:20:28;13.00;69.30
28763;DHT22;15918;51.270;6.522;2023-04-24T09:22:54;13.00;69.60
28763;DHT22;15918;51.270;6.522;2023-04-24T09:25:21;12.90;69.90
28763;DHT22;15918;51.270;6.522;2023-04-24T09:27:47;12.90;69.90
28763;DHT22;15918;51.270;6.522;2023-04-24T09:30:14;12.80;70.00
28763;DHT22;15918;51.270;6.522;2023-04-24T09:32:46;12.80;70.20
28763;DHT22;15918;51.270;6.522;2023-04-24T09:35:13;12.80;70.50
28763;DHT22;15918;51.270;6.522;2023-04-24T09:37:41;12.80;70.90
28763;DHT22;15918;51.270;6.522;2023-04-24T09:40:27;12.80;71.20
28763;DHT22;15918;51.270;6.522;2023-04-24T09:42:54;12.80;71.60
28763;DHT22;15918;51.270;6.522;2023-04-24T09:45:22;12.70;71.80
28763;DHT22;15918;51.270;6.522;2023-04-24T09:47:52;12.70;72.00
28763;DHT22;15918;51.270;6.522;2023-04-24T09:50:19;12.70;72.30
28763;DHT22;15918;51.270;6.522;2023-04-24T09:52:57;12.70;72.30
28763;DHT22;15918;51.270;6.522;2023-04-24T09:55:23;12.70;72.60
28763;DHT22;15918;51.270;6.522;2023-04-24T09:57:57;12.70;72.80
28763;DHT22;15918;51.270;6.522;2023-04-24T10:00:25;12.70;73.00
28763;DHT22;15918;51.270;6.522;2023-04-24T10:02:58;12.70;73.00
28763;DHT22;15918;51.270;6.522;2023-04-24T10:08:03;12.70;73.10
28763;DHT22;15918;51.270;6.522;2023-04-24T10:10:32;12.70;73.30
28763;DHT22;15918;51.270;6.522;2023-04-24T10:12:59;12.70;73.30
28763;DHT22;15918;51.270;6.522;2023-04-24T10:15:26;12.60;73.40
28763;DHT22;15918;51.270;6.522;2023-04-24T10:17:52;12.60;73.30
28763;DHT22;15918;51.270;6.522;2023-04-24T10:20:29;12.70;73.50
28763;DHT22;15918;51.270;6.522;2023-04-24T10:22:56;12.70;73.50
28763;DHT22;15918;51.270;6.522;2023-04-24T10:25:24;12.60;73.40
28763;DHT22;15918;51.270;6.522;2023-04-24T10:27:51;12.60;73.40
28763;DHT22;15918;51.270;6.522;2023-04-24T10:30:18;12.70;73.50
28763;DHT22;15918;51.270;6.522;2023-04-24T10:32:45;12.70;73.20
28763;DHT22;15918;51.270;6.522;2023-04-24T10:35:13;12.70;73.10
28763;DHT22;15918;51.270;6.522;2023-04-24T10:37:42;12.60;73.00
28763;DHT22;15918;51.270;6.522;2023-04-24T10:40:11;12.70;73.30
28763;DHT22;15918;51.270;6.522;2023-04-24T10:42:40;12.70;73.30
28763;DHT22;15918;51.270;6.522;2023-04-24T10:45:19;12.70;73.20
28763;DHT22;15918;51.270;6.522;2023-04-24T10:48:01;12.70;73.60
28763;DHT22;15918;51.270;6.522;2023-04-24T10:50:28;12.80;73.80
28763;DHT22;15918;51.270;6.522;2023-04-24T10:53:13;12.80;73.90
28763;DHT22;15918;51.270;6.522;2023-04-24T10:55:46;12.90;74.00
28763;DHT22;15918;51.270;6.522;2023-04-24T10:58:13;12.90;73.80
28763;DHT22;15918;51.270;6.522;2023-04-24T11:00:41;13.00;74.20
28763;DHT22;15918;51.270;6.522;2023-04-24T11:03:28;13.00;73.10
28763;DHT22;15918;51.270;6.522;2023-04-24T11:08:38;13.10;72.60
28763;DHT22;15918;51.270;6.522;2023-04-24T11:11:12;13.20;72.40
28763;DHT22;15918;51.270;6.522;2023-04-24T11:14:05;13.10;72.10
28763;DHT22;15918;51.270;6.522;2023-04-24T11:16:44;13.20;71.90
28763;DHT22;15918;51.270;6.522;2023-04-24T11:24:27;13.30;71.60
28763;DHT22;15918;51.270;6.522;2023-04-24T11:26:58;13.30;71.40
28763;DHT22;15918;51.270;6.522;2023-04-24T11:29:42;13.40;71.40
28763;DHT22;15918;51.270;6.522;2023-04-24T11:34:54;13.40;71.20
28763;DHT22;15918;51.270;6.522;2023-04-24T11:37:22;13.40;71.00
28763;DHT22;15918;51.270;6.522;2023-04-24T11:39:51;13.40;70.80
28763;DHT22;15918;51.270;6.522;2023-04-24T11:42:17;13.50;70.60
28763;DHT22;15918;51.270;6.522;2023-04-24T11:44:43;13.50;70.40
28763;DHT22;15918;51.270;6.522;2023-04-24T11:47:09;13.50;70.20
28763;DHT22;15918;51.270;6.522;2023-04-24T11:49:37;13.60;70.10
28763;DHT22;15918;51.270;6.522;2023-04-24T11:52:04;13.50;69.80
28763;DHT22;15918;51.270;6.522;2023-04-24T11:54:30;13.50;69.70
28763;DHT22;15918;51.270;6.522;2023-04-24T11:56:56;13.60;69.60
28763;DHT22;15918;51.270;6.522;2023-04-24T11:59:22;13.60;69.50
28763;DHT22;15918;51.270;6.522;2023-04-24T12:01:48;13.60;69.40
28763;DHT22;15918;51.270;6.522;2023-04-24T12:04:15;13.60;69.30
28763;DHT22;15918;51.270;6.522;2023-04-24T12:07:04;13.60;69.00
28763;DHT22;15918;51.270;6.522;2023-04-24T12:12:08;13.60;68.70
28763;DHT22;15918;51.270;6.522;2023-04-24T12:14:42;13.70;68.60
28763;DHT22;15918;51.270;6.522;2023-04-24T12:17:08;13.70;68.20
28763;DHT22;15918;51.270;6.522;2023-04-24T12:19:34;13.70;68.20
28763;DHT22;15918;51.270;6.522;2023-04-24T12:22:01;13.80;68.10
28763;DHT22;15918;51.270;6.522;2023-04-24T12:24:27;13.70;67.70
28763;DHT22;15918;51.270;6.522;2023-04-24T12:26:52;13.70;67.40
28763;DHT22;15918;51.270;6.522;2023-04-24T12:29:22;13.80;67.40
28763;DHT22;15918;51.270;6.522;2023-04-24T12:31:48;13.80;67.30
28763;DHT22;15918;51.270;6.522;2023-04-24T12:34:24;13.80;67.30
28763;DHT22;15918;51.270;6.522;2023-04-24T12:36:50;13.80;67.00
28763;DHT22;15918;51.270;6.522;2023-04-24T12:39:18;13.80;66.80
28763;DHT22;15918;51.270;6.522;2023-04-24T12:41:55;13.80;66.60
28763;DHT22;15918;51.270;6.522;2023-04-24T12:44:31;13.80;66.50
28763;DHT22;15918;51.270;6.522;2023-04-24T12:47:00;14.00;66.50
28763;DHT22;15918;51.270;6.522;2023-04-24T12:49:26;13.90;66.30
28763;DHT22;15918;51.270;6.522;2023-04-24T12:51:52;13.90;66.00
28763;DHT22;15918;51.270;6.522;2023-04-24T12:54:18;13.90;65.70
28763;DHT22;15918;51.270;6.522;2023-04-24T12:56:43;13.90;65.50
28763;DHT22;15918;51.270;6.522;2023-04-24T12:59:09;13.90;65.50
28763;DHT22;15918;51.270;6.522;2023-04-24T13:01:35;14.00;65.40
28763;DHT22;15918;51.270;6.522;2023-04-24T13:04:01;14.00;65.20
28763;DHT22;15918;51.270;6.522;2023-04-24T13:06:26;14.00;65.00
28763;DHT22;15918;51.270;6.522;2023-04-24T13:08:52;14.00;64.80
28763;DHT22;15918;51.270;6.522;2023-04-24T13:11:17;14.00;64.90
28763;DHT22;15918;51.270;6.522;2023-04-24T13:13:43;14.00;64.70
28763;DHT22;15918;51.270;6.522;2023-04-24T13:16:09;14.00;64.40
28763;DHT22;15918;51.270;6.522;2023-04-24T13:18:35;14.00;64.20
28763;DHT22;15918;51.270;6.522;2023-04-24T13:21:00;14.10;64.10
28763;DHT22;15918;51.270;6.522;2023-04-24T13:23:26;14.10;63.80
28763;DHT22;15918;51.270;6.522;2023-04-24T13:25:52;14.10;63.70
28763;DHT22;15918;51.270;6.522;2023-04-24T13:28:20;14.10;63.60
28763;DHT22;15918;51.270;6.522;2023-04-24T13:30:46;14.10;63.50
28763;DHT22;15918;51.270;6.522;2023-04-24T13:33:12;14.10;63.30
28763;DHT22;15918;51.270;6.522;2023-04-24T13:35:37;14.10;63.10
28763;DHT22;15918;51.270;6.522;2023-04-24T13:38:03;14.10;62.90
28763;DHT22;15918;51.270;6.522;2023-04-24T13:40:31;14.10;62.60
28763;DHT22;15918;51.270;6.522;2023-04-24T13:42:56;14.10;62.90
28763;DHT22;15918;51.270;6.522;2023-04-24T13:45:23;14.10;62.50
28763;DHT22;15918;51.270;6.522;2023-04-24T13:47:48;14.10;62.30
28763;DHT22;15918;51.270;6.522;2023-04-24T13:50:14;14.10;62.20
28763;DHT22;15918;51.270;6.522;2023-04-24T13:52:40;14.10;62.20
28763;DHT22;15918;51.270;6.522;2023-04-24T13:55:06;14.10;61.90
28763;DHT22;15918;51.270;6.522;2023-04-24T13:57:32;14.10;61.90
28763;DHT22;15918;51.270;6.522;2023-04-24T13:59:58;14.10;61.90
28763;DHT22;15918;51.270;6.522;2023-04-24T14:02:29;14.20;61.80
28763;DHT22;15918;51.270;6.522;2023-04-24T14:04:55;14.20;62.00
28763;DHT22;15918;51.270;6.522;2023-04-24T14:07:20;14.20;61.90
28763;DHT22;15918;51.270;6.522;2023-04-24T14:09:46;14.20;62.00
28763;DHT22;15918;51.270;6.522;2023-04-24T14:12:11;14.20;61.90
28763;DHT22;15918;51.270;6.522;2023-04-24T14:14:38;14.20;61.80
28763;DHT22;15918;51.270;6.522;2023-04-24T14:17:03;14.30;61.70
28763;DHT22;15918;51.270;6.522;2023-04-24T14:19:29;14.20;61.60
28763;DHT22;15918;51.270;6.522;2023-04-24T14:21:54;14.20;61.60
28763;DHT22;15918;51.270;6.522;2023-04-24T14:24:22;14.20;61.40
28763;DHT22;15918;51.270;6.522;2023-04-24T14:26:47;14.30;61.40
28763;DHT22;15918;51.270;6.522;2023-04-24T14:29:13;14.30;61.40
28763;DHT22;15918;51.270;6.522;2023-04-24T14:31:38;14.30;61.40
28763;DHT22;15918;51.270;6.522;2023-04-24T14:34:04;14.30;61.60
28763;DHT22;15918;51.270;6.522;2023-04-24T14:36:29;14.30;61.60
28763;DHT22;15918;51.270;6.522;2023-04-24T14:38:56;14.30;61.70
28763;DHT22;15918;51.270;6.522;2023-04-24T14:41:22;14.30;61.60
28763;DHT22;15918;51.270;6.522;2023-04-24T14:43:47;14.30;61.60
28763;DHT22;15918;51.270;6.522;2023-04-24T14:46:13;14.30;61.50
28763;DHT22;15918;51.270;6.522;2023-04-24T14:48:39;14.30;61.50
28763;DHT22;15918;51.270;6.522;2023-04-24T14:51:04;14.30;61.40
28763;DHT22;15918;51.270;6.522;2023-04-24T14:53:30;14.40;61.40
28763;DHT22;15918;51.270;6.522;2023-04-24T14:55:56;14.40;61.30
28763;DHT22;15918;51.270;6.522;2023-04-24T14:58:21;14.40;61.10
28763;DHT22;15918;51.270;6.522;2023-04-24T15:00:47;14.40;61.10
28763;DHT22;15918;51.270;6.522;2023-04-24T15:03:15;14.40;61.20
28763;DHT22;15918;51.270;6.522;2023-04-24T15:05:41;14.40;61.20
28763;DHT22;15918;51.270;6.522;2023-04-24T15:08:06;14.40;61.10
28763;DHT22;15918;51.270;6.522;2023-04-24T15:10:32;14.50;61.30
28763;DHT22;15918;51.270;6.522;2023-04-24T15:12:58;14.50;61.20
28763;DHT22;15918;51.270;6.522;2023-04-24T15:15:24;14.50;61.10
28763;DHT22;15918;51.270;6.522;2023-04-24T15:17:49;14.50;61.10
28763;DHT22;15918;51.270;6.522;2023-04-24T15:20:15;14.50;61.10
28763;DHT22;15918;51.270;6.522;2023-04-24T15:22:41;14.50;61.00
28763;DHT22;15918;51.270;6.522;2023-04-24T15:25:07;14.50;60.80
28763;DHT22;15918;51.270;6.522;2023-04-24T15:27:40;14.50;60.60
28763;DHT22;15918;51.270;6.522;2023-04-24T15:30:07;14.50;60.40
28763;DHT22;15918;51.270;6.522;2023-04-24T15:32:32;14.50;60.50
28763;DHT22;15918;51.270;6.522;2023-04-24T15:34:58;14.50;60.40
28763;DHT22;15918;51.270;6.522;2023-04-24T15:37:23;14.60;60.40
28763;DHT22;15918;51.270;6.522;2023-04-24T15:39:50;14.50;60.20
28763;DHT22;15918;51.270;6.522;2023-04-24T15:42:16;14.50;60.00